Time;durP1;ratioP1;P1;durP2;ratioP2;P2;SDS_P1;SDS_P2;PMS_P1;PMS_P2;Temp;Humidity;BMP_temperature;BMP_pressure;BME280_temperature;BME280_humidity;BME280_pressure;Samples;Min_cycle;Max_cycle;Signal;HPM_P1;HPM_P2
2022/06/15 00:00:31;;;;;;;5.37;4.20;;;;;;;20.67;49.62;97550.84;5051401;28;20433;-72
2022/06/15 00:02:57;;;;;;;4.47;4.00;;;;;;;20.62;49.53;97543.50;5051191;28;20211;-71
2022/06/15 00:05:22;;;;;;;10.30;4.00;;;;;;;20.64;49.37;97546.78;5051119;28;20261;-71
2022/06/15 00:07:47;;;;;;;4.90;4.20;;;;;;;20.56;49.79;97541.66;5051142;28;20648;-70
2022/06/15 00:10:13;;;;;;;9.20;4.27;;;;;;;20.52;49.55;97540.44;5050978;28;20199;-71
2022/06/15 00:12:38;;;;;;;8.77;4.60;;;;;;;20.42;49.68;97539.00;5051168;28;20199;-71
2022/06/15 00:15:05;;;;;;;5.47;4.10;;;;;;;20.47;49.88;97534.91;5050834;28;20182;-72
2022/06/15 00:17:31;;;;;;;6.83;4.10;;;;;;;20.40;49.97;97535.75;5050962;28;20179;-71
2022/06/15 00:19:56;;;;;;;6.97;4.37;;;;;;;20.38;49.99;97532.50;5051025;28;20445;-72
2022/06/15 00:22:22;;;;;;;8.80;4.30;;;;;;;20.39;49.84;97534.13;5050888;28;20256;-71
2022/06/15 00:24:47;;;;;;;5.10;4.30;;;;;;;20.36;50.23;97534.53;5050201;28;20270;-72
2022/06/15 00:27:13;;;;;;;9.37;4.37;;;;;;;20.44;49.88;97535.31;5050527;28;20197;-71
2022/06/15 00:29:38;;;;;;;5.87;4.53;;;;;;;20.40;49.92;97538.44;5050960;28;20207;-73
2022/06/15 00:32:07;;;;;;;6.13;4.60;;;;;;;20.36;50.07;97549.66;5050777;28;20810;-71
2022/06/15 00:34:33;;;;;;;4.90;4.23;;;;;;;20.21;50.37;97549.91;5050914;28;20625;-73
2022/06/15 00:37:01;;;;;;;5.70;4.30;;;;;;;20.09;51.20;97539.06;5044109;28;20508;-71
2022/06/15 00:39:27;;;;;;;11.80;5.17;;;;;;;20.15;51.15;97534.78;5050552;28;20178;-71
2022/06/15 00:41:52;;;;;;;9.20;4.67;;;;;;;20.07;50.91;97531.28;5052117;28;20944;-72
2022/06/15 00:44:21;;;;;;;6.00;4.97;;;;;;;20.11;51.15;97531.69;5050770;28;20430;-71
2022/06/15 00:46:49;;;;;;;10.80;4.07;;;;;;;20.06;51.09;97521.66;5050731;28;20194;-71
2022/06/15 00:49:18;;;;;;;9.07;4.80;;;;;;;20.05;51.02;97524.53;5049556;28;20825;-71
2022/06/15 00:51:45;;;;;;;7.40;4.50;;;;;;;20.04;50.57;97525.56;5050878;28;20477;-73
2022/06/15 00:54:11;;;;;;;4.97;4.47;;;;;;;20.07;50.99;97525.97;5050100;28;20441;-72
2022/06/15 00:56:37;;;;;;;6.53;4.50;;;;;;;19.99;51.20;97520.03;5054762;28;20815;-72
2022/06/15 00:59:29;;;;;;;5.07;4.53;;;;;;;19.90;51.54;97519.44;5054259;28;20183;-71
2022/06/15 01:01:54;;;;;;;7.53;4.50;;;;;;;19.85;51.32;97506.69;5053541;28;20621;-71
2022/06/15 01:04:20;;;;;;;9.67;4.23;;;;;;;19.92;51.29;97498.75;5053064;28;20453;-70
2022/06/15 01:07:05;;;;;;;8.27;5.60;;;;;;;19.82;51.34;97495.66;5054748;28;20562;-70
2022/06/15 01:09:33;;;;;;;7.70;5.50;;;;;;;19.85;51.18;97496.06;5045480;28;20870;-71
2022/06/15 01:12:27;;;;;;;5.63;4.77;;;;;;;19.74;51.59;97492.19;5054600;28;20456;-71
2022/06/15 01:14:59;;;;;;;6.60;4.10;;;;;;;19.80;51.50;97491.34;5049846;28;20436;-71
2022/06/15 01:17:51;;;;;;;5.60;4.83;;;;;;;19.72;51.73;97486.25;5053495;28;20426;-71
2022/06/15 01:20:34;;;;;;;7.97;5.07;;;;;;;19.79;51.44;97480.94;5054507;28;20911;-71
2022/06/15 01:23:20;;;;;;;8.70;4.50;;;;;;;19.75;51.67;97485.00;5054024;28;20484;-73
2022/06/15 01:25:53;;;;;;;8.10;5.13;;;;;;;19.73;51.55;97492.38;5048606;28;20425;-70
2022/06/15 01:28:25;;;;;;;7.50;5.00;;;;;;;19.69;51.98;97485.84;5052922;28;20805;-71
2022/06/15 01:30:55;;;;;;;5.87;4.90;;;;;;;19.68;51.70;97478.88;5054280;28;20465;-71
2022/06/15 01:33:27;;;;;;;10.93;5.17;;;;;;;19.56;52.04;97476.00;5053186;28;20867;-72
2022/06/15 01:36:02;;;;;;;9.87;5.10;;;;;;;19.56;52.03;97473.34;5055924;28;20436;-71
2022/06/15 01:38:36;;;;;;;9.43;5.40;;;;;;;19.44;51.92;97471.28;5046006;28;20453;-71
2022/06/15 01:41:15;;;;;;;6.60;4.90;;;;;;;19.44;52.09;97465.97;5055023;28;20437;-72
2022/06/15 01:43:48;;;;;;;6.37;4.77;;;;;;;19.47;51.99;97476.22;5045137;28;20458;-71
2022/06/15 01:46:14;;;;;;;8.23;5.33;;;;;;;19.50;52.09;97482.97;5048518;28;21018;-72
2022/06/15 01:48:40;;;;;;;6.97;4.93;;;;;;;19.53;52.05;97485.22;5052492;28;20512;-72
2022/06/15 01:51:11;;;;;;;8.40;4.77;;;;;;;19.45;51.83;97483.56;5052425;28;20233;-73
2022/06/15 01:53:56;;;;;;;6.20;5.03;;;;;;;19.38;52.01;97484.56;5052763;28;20970;-71
2022/06/15 01:56:45;;;;;;;8.43;4.80;;;;;;;19.21;52.50;97487.63;5052007;28;20792;-71
2022/06/15 01:59:22;;;;;;;8.57;5.27;;;;;;;19.25;52.78;97490.69;5050430;28;20434;-70
2022/06/15 02:02:10;;;;;;;6.93;5.13;;;;;;;19.27;52.73;97488.66;5053509;28;20463;-70
2022/06/15 02:04:45;;;;;;;6.70;5.00;;;;;;;19.30;52.47;97483.75;5045009;28;20927;-72
2022/06/15 02:07:22;;;;;;;7.93;5.37;;;;;;;19.15;52.41;97480.44;5054393;28;20830;-71
2022/06/15 02:10:10;;;;;;;5.73;4.97;;;;;;;19.13;52.54;97477.16;5057516;28;20535;-71
2022/06/15 02:13:19;;;;;;;8.23;4.80;;;;;;;19.01;52.91;97488.38;5046525;28;21054;-71
2022/06/15 02:15:48;;;;;;;8.30;4.70;;;;;;;18.99;53.25;97482.44;5047599;28;20555;-71
2022/06/15 02:18:17;;;;;;;5.20;4.50;;;;;;;18.91;53.03;97489.72;5053073;28;20421;-71
2022/06/15 02:20:47;;;;;;;5.60;5.00;;;;;;;18.90;53.25;97482.81;5053095;28;20422;-71
2022/06/15 02:23:14;;;;;;;8.13;4.70;;;;;;;18.87;53.13;97484.84;5034067;28;20539;-71
2022/06/15 02:25:44;;;;;;;7.90;5.00;;;;;;;18.87;53.26;97484.84;5061025;28;20430;-71
2022/06/15 02:28:10;;;;;;;8.30;5.40;;;;;;;18.91;52.91;97484.41;5051559;28;20429;-72
2022/06/15 02:30:36;;;;;;;6.07;4.40;;;;;;;18.94;53.02;97489.38;5035259;28;20906;-73
2022/06/15 02:33:03;;;;;;;8.40;4.90;;;;;;;18.95;52.68;97483.88;5035231;28;20537;-71
2022/06/15 02:35:29;;;;;;;6.70;4.20;;;;;;;18.83;52.22;97469.50;5046610;28;20237;-72
2022/06/15 02:37:54;;;;;;;6.53;4.90;;;;;;;18.83;52.44;97475.63;5052800;28;20433;-72
2022/06/15 02:40:22;;;;;;;18.27;5.07;;;;;;;18.80;52.58;97477.84;5053497;28;20188;-71
2022/06/15 02:42:48;;;;;;;5.07;4.60;;;;;;;18.71;52.62;97485.16;5052939;28;20203;-71
2022/06/15 02:45:28;;;;;;;6.20;4.40;;;;;;;18.74;52.48;97474.16;5050774;28;20990;-71
2022/06/15 02:47:54;;;;;;;6.10;4.90;;;;;;;18.61;52.74;97472.25;5052697;28;20598;-69
2022/06/15 02:50:21;;;;;;;5.73;4.77;;;;;;;18.69;52.57;97472.09;5052419;28;20800;-70
2022/06/15 02:53:06;;;;;;;4.60;4.20;;;;;;;18.65;52.87;97470.03;5051616;28;20453;-70
2022/06/15 02:55:33;;;;;;;7.27;4.43;;;;;;;18.62;52.83;97473.88;5044928;28;20491;-72
2022/06/15 02:58:08;;;;;;;4.63;4.20;;;;;;;18.52;53.13;97476.94;5060520;28;20921;-73
2022/06/15 03:00:35;;;;;;;7.33;4.40;;;;;;;18.49;53.04;97482.63;5056949;28;20819;-72
2022/06/15 03:03:00;;;;;;;7.80;4.63;;;;;;;18.41;52.92;97480.09;5072755;28;20856;-71
2022/06/15 03:05:25;;;;;;;7.70;4.67;;;;;;;18.44;53.19;97484.22;5049756;28;20442;-72
2022/06/15 03:07:51;;;;;;;7.20;4.57;;;;;;;18.40;53.04;97484.63;5054772;28;20189;-72
2022/06/15 03:10:17;;;;;;;6.67;4.47;;;;;;;18.42;53.20;97476.44;5060122;28;20243;-73
2022/06/15 03:12:42;;;;;;;6.90;4.23;;;;;;;18.45;52.73;97484.03;5052035;28;20203;-72
2022/06/15 03:15:10;;;;;;;7.97;4.50;;;;;;;18.49;52.64;97476.47;5051645;28;20217;-71
2022/06/15 03:17:36;;;;;;;8.73;4.60;;;;;;;18.31;53.04;97474.34;5051530;28;20278;-71
2022/06/15 03:20:01;;;;;;;9.10;5.00;;;;;;;18.26;53.10;97467.81;5052997;28;20501;-71
2022/06/15 03:22:27;;;;;;;10.13;4.73;;;;;;;18.23;53.27;97475.31;5052369;28;20536;-71
2022/06/15 03:24:52;;;;;;;6.60;4.03;;;;;;;18.22;53.03;97477.16;5052732;28;20232;-71
2022/06/15 03:27:18;;;;;;;5.33;4.80;;;;;;;18.23;53.18;97472.66;5051873;28;20649;-72
2022/06/15 03:29:45;;;;;;;6.50;4.57;;;;;;;18.17;53.46;97466.31;5052251;28;20525;-72
2022/06/15 03:32:14;;;;;;;5.83;4.33;;;;;;;18.21;53.32;97475.53;5051546;28;20458;-71
2022/06/15 03:34:39;;;;;;;6.97;4.60;;;;;;;18.19;53.29;97466.94;5052880;28;20447;-71
2022/06/15 03:37:05;;;;;;;8.10;4.37;;;;;;;18.24;53.01;97467.19;5053573;28;20520;-71
2022/06/15 03:39:30;;;;;;;6.83;4.40;;;;;;;18.05;53.50;97481.13;5059659;28;20176;-72
2022/06/15 03:42:16;;;;;;;7.60;4.40;;;;;;;18.14;53.38;97479.97;5052601;28;20203;-71
2022/06/15 03:44:42;;;;;;;6.67;4.30;;;;;;;18.22;53.44;97471.84;5044964;28;20261;-72
2022/06/15 03:47:12;;;;;;;6.30;4.57;;;;;;;18.23;52.52;97470.84;5059032;28;20435;-72
2022/06/15 03:49:38;;;;;;;7.23;4.47;;;;;;;18.30;52.67;97475.34;5050329;28;20205;-72
2022/06/15 03:52:04;;;;;;;4.80;4.30;;;;;;;18.36;52.84;97469.28;5050939;28;20446;-71
2022/06/15 03:54:29;;;;;;;9.00;4.70;;;;;;;18.40;52.99;97468.69;5054779;28;20190;-72
2022/06/15 03:56:55;;;;;;;8.13;4.57;;;;;;;18.44;52.80;97463.81;5055236;28;20426;-71
2022/06/15 03:59:21;;;;;;;6.07;4.37;;;;;;;18.48;52.58;97464.22;5049939;28;20179;-71
2022/06/15 04:01:47;;;;;;;5.80;5.20;;;;;;;18.47;52.42;97463.41;5051040;28;20206;-71
2022/06/15 04:04:13;;;;;;;7.20;5.17;;;;;;;18.38;52.74;97464.59;5058052;28;20909;-71
2022/06/15 04:06:38;;;;;;;12.47;5.47;;;;;;;18.30;53.72;97462.94;5051437;28;20187;-72
2022/06/15 04:09:04;;;;;;;8.33;4.37;;;;;;;18.33;53.67;97461.72;5050510;28;20190;-73
2022/06/15 04:14:14;;;;;;;5.47;4.53;;;;;;;18.31;54.13;97472.53;5052550;28;20260;-72
2022/06/15 04:16:39;;;;;;;7.43;4.83;;;;;;;18.36;54.35;97466.63;5049041;28;20454;-71
2022/06/15 04:19:07;;;;;;;6.23;4.27;;;;;;;18.43;54.29;97470.13;5057468;28;20209;-72
2022/06/15 04:21:32;;;;;;;10.20;4.53;;;;;;;18.51;53.96;97469.16;5050494;28;20211;-71
2022/06/15 04:23:58;;;;;;;6.80;5.00;;;;;;;18.55;53.93;97465.09;5050553;28;20491;-71
2022/06/15 04:26:23;;;;;;;5.97;4.90;;;;;;;18.40;54.66;97473.16;5058629;28;20187;-72
2022/06/15 04:28:49;;;;;;;6.97;4.83;;;;;;;18.49;54.90;97473.81;5050869;28;20650;-73
2022/06/15 04:31:15;;;;;;;9.37;5.00;;;;;;;18.56;54.78;97475.50;5050270;28;20706;-71
2022/06/15 04:33:41;;;;;;;6.03;5.33;;;;;;;18.65;54.55;97475.34;5049788;28;20236;-70
2022/06/15 04:36:07;;;;;;;7.77;5.50;;;;;;;18.62;54.52;97481.84;5056797;28;20274;-71
2022/06/15 04:38:32;;;;;;;10.10;5.10;;;;;;;18.63;54.83;97488.81;5050548;28;20262;-71
2022/06/15 04:40:58;;;;;;;10.83;5.37;;;;;;;18.69;55.03;97489.84;5051713;28;20521;-73
2022/06/15 04:43:24;;;;;;;11.30;5.37;;;;;;;18.73;55.02;97485.78;5058949;28;20187;-71
2022/06/15 04:45:50;;;;;;;5.80;5.00;;;;;;;18.77;54.73;97484.38;5049009;28;20182;-71
2022/06/15 04:48:15;;;;;;;6.90;5.47;;;;;;;18.80;54.94;97478.66;5049000;28;20692;-71
2022/06/15 04:50:41;;;;;;;6.00;5.40;;;;;;;18.91;54.87;97487.91;5050231;28;20400;-71
2022/06/15 04:53:07;;;;;;;6.13;5.10;;;;;;;18.90;53.54;97491.56;5050333;28;20178;-72
2022/06/15 04:55:33;;;;;;;5.60;5.10;;;;;;;18.98;53.45;97494.06;5050825;28;20182;-72
2022/06/15 04:57:59;;;;;;;8.33;5.73;;;;;;;19.05;53.75;97487.97;5049870;28;20210;-71
2022/06/15 05:00:28;;;;;;;5.80;5.13;;;;;;;19.12;54.23;97487.00;5058509;28;20426;-70
2022/06/15 05:02:54;;;;;;;7.07;6.03;;;;;;;19.19;54.02;97487.81;5050305;28;20229;-72
2022/06/15 05:05:20;;;;;;;7.03;5.40;;;;;;;19.26;53.58;97481.72;5046273;28;20848;-71
2022/06/15 05:07:46;;;;;;;9.43;5.50;;;;;;;19.35;53.28;97491.13;5042911;28;20649;-72
2022/06/15 05:10:18;;;;;;;12.83;5.67;;;;;;;19.41;53.39;97487.63;5050049;28;20219;-71
2022/06/15 05:12:44;;;;;;;5.97;5.37;;;;;;;19.47;53.40;97484.19;5046246;28;20214;-71
2022/06/15 05:15:10;;;;;;;12.33;5.70;;;;;;;19.52;53.51;97480.13;5048516;28;20430;-70
2022/06/15 05:17:36;;;;;;;8.83;5.57;;;;;;;19.56;53.29;97482.16;5042695;28;20438;-70
2022/06/15 05:20:02;;;;;;;5.73;5.13;;;;;;;19.62;53.04;97489.31;5050483;28;21182;-70
2022/06/15 05:22:27;;;;;;;8.13;5.00;;;;;;;19.71;52.91;97489.94;5041046;28;20217;-70
2022/06/15 05:24:52;;;;;;;7.30;4.93;;;;;;;19.86;52.81;97484.44;5050640;28;20262;-71
2022/06/15 05:27:18;;;;;;;6.20;4.53;;;;;;;20.02;52.14;97490.34;5050100;28;20635;-70
2022/06/15 05:29:43;;;;;;;8.00;4.50;;;;;;;20.16;51.94;97488.53;5050445;28;20211;-70
2022/06/15 05:32:09;;;;;;;8.00;4.27;;;;;;;20.30;51.72;97484.78;5048427;28;20245;-73
2022/06/15 05:34:35;;;;;;;5.97;4.37;;;;;;;20.43;51.22;97486.63;5053496;28;20206;-70
2022/06/15 05:37:00;;;;;;;5.60;4.50;;;;;;;20.54;50.04;97480.63;5054825;28;20700;-70
2022/06/15 05:39:26;;;;;;;11.10;4.97;;;;;;;20.67;49.16;97487.75;5050984;28;20175;-70
2022/06/15 05:41:52;;;;;;;4.17;3.77;;;;;;;20.82;49.27;97484.03;5055873;28;20623;-71
2022/06/15 05:46:44;;;;;;;7.60;4.83;;;;;;;21.13;49.08;97474.47;5046636;28;20191;-69
2022/06/15 05:49:10;;;;;;;5.20;4.40;;;;;;;21.26;49.52;97484.22;5052920;28;20487;-70
2022/06/15 05:51:36;;;;;;;8.57;4.60;;;;;;;21.37;49.02;97480.06;5054125;28;20788;-70
2022/06/15 05:54:02;;;;;;;6.10;3.90;;;;;;;21.45;48.30;97477.97;5053213;28;20444;-70
2022/06/15 05:56:27;;;;;;;9.40;4.10;;;;;;;21.59;47.82;97477.88;5059490;28;20182;-72
2022/06/15 05:58:53;;;;;;;5.00;4.13;;;;;;;21.75;48.08;97466.69;5053558;28;20175;-69
2022/06/15 06:01:27;;;;;;;10.50;4.63;;;;;;;21.88;47.59;97468.44;5053427;28;20203;-69
2022/06/15 06:03:53;;;;;;;7.30;3.80;;;;;;;22.05;46.60;97465.22;5052470;28;20182;-70
2022/06/15 06:06:19;;;;;;;6.00;3.87;;;;;;;22.21;46.08;97466.50;5046997;28;20434;-72
2022/06/15 06:08:44;;;;;;;9.23;3.57;;;;;;;22.32;45.06;97465.75;5043067;28;20183;-70
2022/06/15 06:11:10;;;;;;;12.97;3.57;;;;;;;22.51;45.14;97476.47;5053294;28;20289;-71
2022/06/15 06:13:35;;;;;;;6.20;3.60;;;;;;;22.62;44.22;97472.25;5046280;28;20190;-73
2022/06/15 06:16:01;;;;;;;5.70;3.47;;;;;;;22.75;43.94;97466.75;5045967;28;20252;-72
2022/06/15 06:18:27;;;;;;;6.60;3.83;;;;;;;22.89;43.41;97475.41;5051203;28;20175;-72
2022/06/15 06:20:53;;;;;;;5.50;3.80;;;;;;;22.98;43.02;97467.88;5052772;28;20179;-71
2022/06/15 06:23:19;;;;;;;8.47;4.07;;;;;;;23.11;43.29;97473.06;5047260;28;20202;-72
2022/06/15 06:25:47;;;;;;;7.00;3.53;;;;;;;23.23;43.25;97466.97;5052610;28;20425;-72
2022/06/15 06:28:31;;;;;;;6.40;3.97;;;;;;;23.39;42.74;97466.31;5049217;28;20191;-72
2022/06/15 06:30:59;;;;;;;6.97;3.50;;;;;;;23.55;42.56;97472.88;5052989;28;20464;-71
2022/06/15 06:33:29;;;;;;;4.00;3.60;;;;;;;23.72;42.63;97466.84;5051892;28;20426;-70
2022/06/15 06:35:56;;;;;;;7.10;3.70;;;;;;;23.85;41.55;97466.63;5056279;28;20467;-71
2022/06/15 06:38:22;;;;;;;5.70;3.80;;;;;;;23.99;40.98;97467.25;5050916;28;21343;-72
2022/06/15 06:40:49;;;;;;;15.63;3.87;;;;;;;24.06;39.75;97467.13;5050821;28;20919;-71
2022/06/15 06:43:14;;;;;;;6.90;3.67;;;;;;;23.96;39.59;97473.06;5052220;28;20191;-71
2022/06/15 06:45:40;;;;;;;3.67;3.00;;;;;;;24.14;39.46;97479.34;5051556;28;20433;-71
2022/06/15 06:48:06;;;;;;;5.30;3.20;;;;;;;24.30;39.47;97470.63;5051622;28;20179;-71
2022/06/15 06:50:31;;;;;;;3.90;3.43;;;;;;;24.46;39.95;97478.97;5049787;28;20214;-70
2022/06/15 06:52:57;;;;;;;4.50;3.20;;;;;;;24.61;39.76;97478.47;5046681;28;20229;-71
2022/06/15 06:55:26;;;;;;;4.00;3.43;;;;;;;24.77;39.13;97482.31;5043829;28;20190;-72
2022/06/15 06:57:56;;;;;;;4.50;3.30;;;;;;;24.86;38.96;97475.50;5044978;28;20210;-71
2022/06/15 07:00:21;;;;;;;6.70;3.63;;;;;;;25.06;39.23;97485.03;5050955;28;20426;-72
2022/06/15 07:02:47;;;;;;;7.83;3.10;;;;;;;25.11;38.26;97477.06;5051858;28;20457;-72
2022/06/15 07:05:12;;;;;;;9.83;3.90;;;;;;;25.29;38.21;97481.41;5052206;28;20187;-71
2022/06/15 07:07:38;;;;;;;7.80;3.03;;;;;;;25.44;38.38;97478.22;5050959;28;20190;-71
2022/06/15 07:10:04;;;;;;;6.37;3.10;;;;;;;25.58;38.69;97471.47;5052178;28;20199;-70
2022/06/15 07:12:29;;;;;;;6.80;3.20;;;;;;;25.66;38.22;97482.88;5052178;28;20681;-72
2022/06/15 07:14:54;;;;;;;8.57;3.90;;;;;;;25.81;38.55;97480.44;5048124;28;20273;-71
2022/06/15 07:17:20;;;;;;;9.23;3.47;;;;;;;25.92;38.03;97473.34;5050853;28;20187;-71
2022/06/15 07:19:47;;;;;;;9.17;3.60;;;;;;;25.95;37.30;97477.44;5052340;28;20171;-71
2022/06/15 07:22:13;;;;;;;5.90;3.57;;;;;;;25.86;37.28;97475.13;5051905;28;20195;-71
2022/06/15 07:24:39;;;;;;;4.90;3.00;;;;;;;26.05;37.26;97480.25;5034440;28;20434;-72
2022/06/15 07:27:05;;;;;;;7.50;3.60;;;;;;;26.22;37.60;97475.69;5051684;28;20190;-71
2022/06/15 07:29:30;;;;;;;5.27;3.27;;;;;;;26.36;37.42;97476.16;5053154;28;20465;-71
2022/06/15 07:31:56;;;;;;;6.47;3.93;;;;;;;26.38;35.88;97470.53;5052236;28;20289;-73
2022/06/15 07:34:22;;;;;;;11.73;3.40;;;;;;;26.46;35.66;97480.88;5051330;28;20256;-72
2022/06/15 07:36:49;;;;;;;5.07;3.60;;;;;;;26.53;35.97;97476.13;5053685;28;20221;-71
2022/06/15 07:39:20;;;;;;;3.80;3.13;;;;;;;26.70;35.78;97475.25;5052011;28;21054;-71
2022/06/15 07:41:46;;;;;;;6.73;3.40;;;;;;;26.89;36.06;97474.94;5054124;28;20441;-72
2022/06/15 07:44:12;;;;;;;5.20;3.27;;;;;;;27.02;35.59;97477.25;5051615;28;20433;-72
2022/06/15 07:46:38;;;;;;;4.97;2.93;;;;;;;27.03;34.60;97478.88;5050358;28;20429;-72
2022/06/15 07:51:54;;;;;;;7.00;3.10;;;;;;;27.01;35.05;97475.63;5051587;28;20206;-71
2022/06/15 07:54:19;;;;;;;7.07;3.07;;;;;;;27.22;34.46;97481.22;5051142;28;21307;-72
2022/06/15 07:56:46;;;;;;;6.70;3.13;;;;;;;27.34;34.61;97479.19;5051317;28;20433;-71
2022/06/15 07:59:12;;;;;;;5.33;3.03;;;;;;;27.55;34.62;97476.72;5051903;28;20187;-71
2022/06/15 08:01:38;;;;;;;5.87;3.57;;;;;;;27.69;33.95;97488.69;5051920;28;20449;-73
2022/06/15 08:04:04;;;;;;;5.20;2.73;;;;;;;27.78;34.18;97477.44;5050835;28;20436;-72
2022/06/15 08:06:30;;;;;;;8.23;3.10;;;;;;;27.95;34.37;97493.44;5051522;28;20240;-71
2022/06/15 08:08:56;;;;;;;4.43;2.80;;;;;;;27.81;33.08;97485.78;5052399;28;20776;-73
2022/06/15 08:11:21;;;;;;;4.57;3.00;;;;;;;28.01;32.77;97490.53;5051566;28;20485;-71
2022/06/15 08:13:48;;;;;;;8.23;3.23;;;;;;;28.21;33.43;97481.00;5050448;28;20194;-72
2022/06/15 08:16:14;;;;;;;7.30;3.20;;;;;;;28.41;32.98;97484.88;5047141;28;20188;-72
2022/06/15 08:18:43;;;;;;;8.17;3.50;;;;;;;28.63;32.98;97487.41;5051914;28;20457;-72
2022/06/15 08:21:17;;;;;;;4.10;2.90;;;;;;;28.76;32.93;97486.13;5051039;28;20940;-72
2022/06/15 08:23:45;;;;;;;4.27;3.00;;;;;;;28.93;32.75;97475.94;5051332;28;20440;-71
2022/06/15 08:26:17;;;;;;;5.67;3.30;;;;;;;29.12;32.79;97483.53;5033123;28;20952;-71
2022/06/15 08:28:46;;;;;;;8.27;3.33;;;;;;;29.07;31.40;97481.63;5050913;28;20429;-71
2022/06/15 08:31:12;;;;;;;8.83;3.33;;;;;;;29.07;31.62;97481.63;5042905;28;20482;-71
2022/06/15 08:33:38;;;;;;;6.33;3.03;;;;;;;29.30;32.29;97486.81;5050697;28;20433;-71
2022/06/15 08:36:04;;;;;;;9.50;3.60;;;;;;;29.47;32.35;97479.31;5062230;28;20784;-71
2022/06/15 08:38:29;;;;;;;10.90;3.63;;;;;;;29.53;31.74;97489.03;5051057;28;20179;-71
2022/06/15 08:41:09;;;;;;;5.60;2.73;;;;;;;29.68;31.08;97498.22;5052183;28;20513;-71
2022/06/15 08:43:48;;;;;;;3.50;3.20;;;;;;;29.85;31.77;97485.28;5049544;28;20194;-71
2022/06/15 08:46:32;;;;;;;6.77;3.37;;;;;;;30.03;30.90;97483.09;5048138;28;20444;-70
2022/06/15 08:49:06;;;;;;;3.20;2.83;;;;;;;30.23;31.33;97484.97;5050969;28;20453;-71
2022/06/15 08:51:36;;;;;;;8.50;2.80;;;;;;;30.34;30.32;97477.66;5043392;28;20434;-70
2022/06/15 08:54:06;;;;;;;4.87;3.07;;;;;;;30.48;30.83;97480.56;5050611;28;20440;-72
2022/06/15 08:56:44;;;;;;;4.10;3.53;;;;;;;30.62;29.92;97480.84;5046797;28;20425;-72
2022/06/15 08:59:19;;;;;;;6.93;2.60;;;;;;;30.76;31.06;97486.44;5050598;28;20444;-71
2022/06/15 09:02:22;;;;;;;5.70;2.57;;;;;;;30.91;30.82;97482.84;5050446;28;20453;-71
2022/06/15 09:04:47;;;;;;;4.20;2.90;;;;;;;31.04;29.79;97487.66;5045337;28;20425;-70
2022/06/15 09:07:28;;;;;;;3.27;2.83;;;;;;;31.13;29.39;97484.41;5049966;28;20927;-71
2022/06/15 09:09:53;;;;;;;5.00;2.67;;;;;;;31.28;29.58;97486.19;5049497;28;20265;-71
2022/06/15 09:12:53;;;;;;;4.43;2.67;;;;;;;31.46;29.71;97479.31;5050377;28;20821;-71
2022/06/15 09:15:46;;;;;;;3.90;2.87;;;;;;;31.43;29.26;97479.88;5041048;28;20203;-70
2022/06/15 09:18:22;;;;;;;10.70;3.10;;;;;;;31.50;28.62;97486.56;5051657;28;20421;-70
2022/06/15 09:20:52;;;;;;;8.53;2.43;;;;;;;31.45;28.90;97483.09;5053348;28;20916;-72
2022/06/15 09:23:26;;;;;;;5.00;3.07;;;;;;;31.61;28.89;97490.03;5052802;28;20441;-71
2022/06/15 09:26:03;;;;;;;7.33;2.97;;;;;;;31.70;29.18;97491.06;5052744;28;20434;-72
2022/06/15 09:28:34;;;;;;;5.40;2.87;;;;;;;31.83;28.81;97488.78;5045180;28;20962;-72
2022/06/15 09:31:09;;;;;;;6.83;2.67;;;;;;;31.90;29.11;97489.25;5054367;28;20457;-71
2022/06/15 09:33:47;;;;;;;5.43;3.03;;;;;;;32.01;29.15;97487.28;5046890;28;20444;-72
2022/06/15 09:36:18;;;;;;;7.10;3.23;;;;;;;32.14;28.07;97485.78;5056510;28;20433;-72
2022/06/15 09:38:44;;;;;;;5.93;3.03;;;;;;;32.19;28.33;97493.88;5052746;28;20432;-73
2022/06/15 09:41:35;;;;;;;5.30;3.20;;;;;;;32.23;28.72;97485.97;5056433;28;20493;-72
2022/06/15 09:44:24;;;;;;;5.53;2.80;;;;;;;32.38;28.61;97487.75;5052911;28;20418;-71
2022/06/15 09:47:07;;;;;;;3.03;2.70;;;;;;;32.53;27.95;97481.34;5047259;28;20490;-71
2022/06/15 09:50:04;;;;;;;7.43;3.47;;;;;;;32.61;27.18;97480.69;5044861;28;20465;-71
2022/06/15 09:52:54;;;;;;;5.70;3.17;;;;;;;32.76;28.49;97480.50;5044114;28;20441;-70
2022/06/15 09:55:26;;;;;;;6.37;2.77;;;;;;;32.86;27.59;97485.03;5053618;28;20433;-72
2022/06/15 09:57:53;;;;;;;5.83;3.07;;;;;;;32.89;27.52;97484.41;5053949;28;20970;-71
2022/06/15 10:00:18;;;;;;;9.37;2.87;;;;;;;32.93;26.71;97479.25;5052442;28;20450;-71
2022/06/15 10:02:47;;;;;;;12.40;3.30;;;;;;;33.04;26.65;97482.59;5035474;28;20499;-72
2022/06/15 10:05:28;;;;;;;4.83;3.30;;;;;;;33.00;26.66;97481.59;5052722;28;20209;-71
2022/06/15 10:07:55;;;;;;;5.13;3.10;;;;;;;33.14;26.94;97482.50;5052111;28;20532;-72
2022/06/15 10:10:27;;;;;;;6.57;2.97;;;;;;;33.18;26.50;97486.22;5052983;28;20465;-72
2022/06/15 10:12:56;;;;;;;7.60;2.80;;;;;;;33.35;27.60;97480.28;5052517;28;20956;-72
2022/06/15 10:15:34;;;;;;;9.20;3.40;;;;;;;33.39;25.93;97477.81;5049152;28;20441;-72
2022/06/15 10:18:13;;;;;;;8.77;2.90;;;;;;;33.32;26.02;97477.31;5052127;28;20486;-71
2022/06/15 10:20:39;;;;;;;5.60;2.80;;;;;;;33.42;26.62;97474.47;5029107;28;20437;-71
2022/06/15 10:23:20;;;;;;;4.03;3.00;;;;;;;33.48;25.96;97481.47;5052470;28;20468;-71
2022/06/15 10:25:53;;;;;;;6.43;2.90;;;;;;;33.53;26.26;97483.28;5051994;28;20429;-70
2022/06/15 10:28:31;;;;;;;8.00;3.00;;;;;;;33.60;26.26;97480.97;5051374;28;20437;-71
2022/06/15 10:31:11;;;;;;;4.33;2.90;;;;;;;33.82;26.82;97482.28;5053199;28;20465;-71
2022/06/15 10:33:48;;;;;;;6.50;2.83;;;;;;;33.92;26.23;97475.88;5044771;28;20448;-71
2022/06/15 10:36:20;;;;;;;5.03;2.97;;;;;;;34.09;25.45;97478.81;5051142;28;20939;-72
2022/06/15 10:38:52;;;;;;;7.40;2.70;;;;;;;34.24;25.35;97475.00;5052881;28;20443;-72
2022/06/15 10:44:02;;;;;;;3.20;2.90;;;;;;;34.48;24.10;97479.47;5037633;28;20426;-71
2022/06/15 10:46:48;;;;;;;3.87;2.77;;;;;;;34.54;23.64;97475.56;5050231;28;20436;-73
2022/06/15 10:49:13;;;;;;;8.80;3.00;;;;;;;34.65;24.36;97473.44;5051177;28;20452;-70
2022/06/15 10:51:39;;;;;;;2.70;2.50;;;;;;;34.69;24.37;97460.81;5051165;28;20807;-73
2022/06/15 10:54:17;;;;;;;4.87;2.93;;;;;;;34.81;23.71;97463.03;5050482;28;20183;-71
2022/06/15 11:02:40;;;;;;;7.63;2.53;;;;;;;34.93;22.68;97454.34;5060509;28;20587;-72
2022/06/15 11:05:19;;;;;;;4.73;2.60;;;;;;;35.06;22.83;97448.06;5052406;28;20460;-72
2022/06/15 11:07:56;;;;;;;6.27;2.73;;;;;;;35.02;22.65;97449.81;5051962;28;20440;-72
2022/06/15 11:10:34;;;;;;;4.00;2.70;;;;;;;35.09;23.64;97449.41;5050919;28;20503;-73
2022/06/15 11:13:05;;;;;;;4.13;2.90;;;;;;;35.09;22.96;97449.41;5052246;28;20449;-72
2022/06/15 11:18:45;;;;;;;4.97;2.80;;;;;;;35.06;22.79;97437.19;5044344;28;20417;-72
2022/06/15 11:21:18;;;;;;;3.70;2.57;;;;;;;35.17;23.42;97432.31;5050793;28;20447;-72
2022/06/15 11:24:13;;;;;;;11.57;2.90;;;;;;;34.97;21.70;97438.25;5052292;28;20421;-71
2022/06/15 11:26:55;;;;;;;5.73;2.70;;;;;;;35.20;22.87;97436.31;5043776;28;20925;-73
2022/06/15 11:29:57;;;;;;;7.27;2.67;;;;;;;35.34;23.10;97431.63;5053267;28;20830;-71
2022/06/15 11:32:29;;;;;;;3.30;2.77;;;;;;;35.42;22.18;97432.00;5051887;28;20448;-72
2022/06/15 11:35:12;;;;;;;7.20;2.50;;;;;;;35.16;21.77;97429.91;5053627;28;20452;-72
2022/06/15 11:37:57;;;;;;;4.33;2.57;;;;;;;35.12;21.18;97434.34;5042856;28;20436;-72
2022/06/15 11:40:47;;;;;;;3.20;2.67;;;;;;;35.07;21.53;97432.56;5052672;28;20951;-72
2022/06/15 11:43:18;;;;;;;5.00;2.60;;;;;;;34.95;22.01;97429.56;5051242;28;20864;-72
2022/06/15 11:45:55;;;;;;;6.37;2.40;;;;;;;35.12;20.86;97428.91;5050687;28;20428;-73
2022/06/15 11:48:45;;;;;;;4.40;2.17;;;;;;;35.33;21.87;97435.47;5049923;28;20932;-71
2022/06/15 11:51:22;;;;;;;5.23;2.40;;;;;;;35.28;20.66;97437.50;5051385;28;20461;-72
2022/06/15 11:54:06;;;;;;;4.10;2.47;;;;;;;35.45;21.49;97434.94;5049718;28;20417;-71
2022/06/15 11:56:54;;;;;;;8.97;2.60;;;;;;;35.56;21.67;97430.03;5043804;28;20452;-71
2022/06/15 11:59:50;;;;;;;6.27;2.70;;;;;;;35.63;20.96;97422.25;5051136;28;20440;-71
2022/06/15 12:02:31;;;;;;;5.30;2.57;;;;;;;35.50;20.45;97426.63;5050919;28;20448;-72
2022/06/15 12:05:09;;;;;;;2.70;2.50;;;;;;;35.49;21.44;97432.41;5051550;28;20491;-72
2022/06/15 12:07:42;;;;;;;4.03;2.47;;;;;;;35.50;21.14;97423.13;5044112;28;20417;-71